sensor_id;sensor_type;location;lat;lon;timestamp;P1;durP1;ratioP1;P2;durP2;ratioP2
79638;SDS011;69114;49.108;8.280;2024-01-30T00:01:11;20.58;;;12.70;;
79638;SDS011;69114;49.108;8.280;2024-01-30T00:03:37;21.05;;;13.15;;
79638;SDS011;69114;49.108;8.280;2024-01-30T00:06:05;19.83;;;12.90;;
79638;SDS011;69114;49.108;8.280;2024-01-30T00:08:31;22.73;;;13.48;;
79638;SDS011;69114;49.108;8.280;2024-01-30T00:10:56;20.02;;;14.23;;
79638;SDS011;69114;49.108;8.280;2024-01-30T00:13:21;19.27;;;12.13;;
79638;SDS011;69114;49.108;8.280;2024-01-30T00:15:47;18.15;;;11.98;;
79638;SDS011;69114;49.108;8.280;2024-01-30T00:18:13;21.10;;;13.77;;
79638;SDS011;69114;49.108;8.280;2024-01-30T00:20:39;24.85;;;14.23;;
79638;SDS011;69114;49.108;8.280;2024-01-30T00:23:04;21.55;;;13.02;;
79638;SDS011;69114;49.108;8.280;2024-01-30T00:25:29;19.83;;;13.77;;
79638;SDS011;69114;49.108;8.280;2024-01-30T00:27:55;18.67;;;11.57;;
79638;SDS011;69114;49.108;8.280;2024-01-30T00:30:20;19.77;;;13.07;;
79638;SDS011;69114;49.108;8.280;2024-01-30T00:32:46;23.27;;;14.27;;
79638;SDS011;69114;49.108;8.280;2024-01-30T00:35:11;22.10;;;13.32;;
79638;SDS011;69114;49.108;8.280;2024-01-30T00:37:37;24.38;;;12.65;;
79638;SDS011;69114;49.108;8.280;2024-01-30T00:40:02;21.27;;;13.13;;
79638;SDS011;69114;49.108;8.280;2024-01-30T00:42:28;22.83;;;12.15;;
79638;SDS011;69114;49.108;8.280;2024-01-30T00:44:54;19.92;;;13.57;;
79638;SDS011;69114;49.108;8.280;2024-01-30T00:47:19;18.80;;;13.00;;
79638;SDS011;69114;49.108;8.280;2024-01-30T00:49:44;21.75;;;14.48;;
79638;SDS011;69114;49.108;8.280;2024-01-30T00:52:10;23.50;;;14.63;;
79638;SDS011;69114;49.108;8.280;2024-01-30T00:54:35;23.88;;;13.88;;
79638;SDS011;69114;49.108;8.280;2024-01-30T00:57:00;20.58;;;13.98;;
79638;SDS011;69114;49.108;8.280;2024-01-30T00:59:26;21.13;;;12.43;;
79638;SDS011;69114;49.108;8.280;2024-01-30T01:01:51;19.13;;;12.15;;
79638;SDS011;69114;49.108;8.280;2024-01-30T01:04:16;23.33;;;14.45;;
79638;SDS011;69114;49.108;8.280;2024-01-30T01:06:42;17.65;;;12.98;;
79638;SDS011;69114;49.108;8.280;2024-01-30T01:09:09;21.00;;;12.93;;
79638;SDS011;69114;49.108;8.280;2024-01-30T01:11:37;18.88;;;13.15;;
79638;SDS011;69114;49.108;8.280;2024-01-30T01:14:03;20.33;;;12.02;;
79638;SDS011;69114;49.108;8.280;2024-01-30T01:16:28;22.35;;;13.88;;
79638;SDS011;69114;49.108;8.280;2024-01-30T01:18:54;23.20;;;15.10;;
79638;SDS011;69114;49.108;8.280;2024-01-30T01:21:19;17.52;;;13.32;;
79638;SDS011;69114;49.108;8.280;2024-01-30T01:23:44;17.92;;;12.55;;
79638;SDS011;69114;49.108;8.280;2024-01-30T01:26:10;22.48;;;13.27;;
79638;SDS011;69114;49.108;8.280;2024-01-30T01:28:35;21.10;;;13.65;;
79638;SDS011;69114;49.108;8.280;2024-01-30T01:31:01;21.75;;;13.18;;
79638;SDS011;69114;49.108;8.280;2024-01-30T01:33:30;20.25;;;14.23;;
79638;SDS011;69114;49.108;8.280;2024-01-30T01:35:57;18.63;;;12.20;;
79638;SDS011;69114;49.108;8.280;2024-01-30T01:38:23;23.48;;;14.55;;
79638;SDS011;69114;49.108;8.280;2024-01-30T01:40:48;21.40;;;13.40;;
79638;SDS011;69114;49.108;8.280;2024-01-30T01:43:13;21.10;;;13.93;;
79638;SDS011;69114;49.108;8.280;2024-01-30T01:45:39;23.50;;;13.98;;
79638;SDS011;69114;49.108;8.280;2024-01-30T01:48:04;19.02;;;13.52;;
79638;SDS011;69114;49.108;8.280;2024-01-30T01:50:30;22.20;;;13.45;;
79638;SDS011;69114;49.108;8.280;2024-01-30T01:52:55;22.40;;;14.50;;
79638;SDS011;69114;49.108;8.280;2024-01-30T01:55:21;22.85;;;13.15;;
79638;SDS011;69114;49.108;8.280;2024-01-30T01:57:49;19.25;;;13.27;;
79638;SDS011;69114;49.108;8.280;2024-01-30T02:00:15;21.13;;;13.95;;
79638;SDS011;69114;49.108;8.280;2024-01-30T02:02:41;23.83;;;15.05;;
79638;SDS011;69114;49.108;8.280;2024-01-30T02:05:10;19.42;;;12.32;;
79638;SDS011;69114;49.108;8.280;2024-01-30T02:07:36;19.88;;;13.60;;
79638;SDS011;69114;49.108;8.280;2024-01-30T02:10:01;22.70;;;14.43;;
79638;SDS011;69114;49.108;8.280;2024-01-30T02:12:28;19.75;;;13.55;;
79638;SDS011;69114;49.108;8.280;2024-01-30T02:14:54;19.42;;;12.98;;
79638;SDS011;69114;49.108;8.280;2024-01-30T02:17:20;21.73;;;13.63;;
79638;SDS011;69114;49.108;8.280;2024-01-30T02:19:45;24.02;;;15.13;;
79638;SDS011;69114;49.108;8.280;2024-01-30T02:22:11;23.40;;;13.55;;
79638;SDS011;69114;49.108;8.280;2024-01-30T02:24:37;18.10;;;13.35;;
79638;SDS011;69114;49.108;8.280;2024-01-30T02:27:03;23.08;;;13.82;;
79638;SDS011;69114;49.108;8.280;2024-01-30T02:29:28;19.98;;;14.43;;
79638;SDS011;69114;49.108;8.280;2024-01-30T02:31:54;19.43;;;13.43;;
79638;SDS011;69114;49.108;8.280;2024-01-30T02:34:19;23.02;;;13.07;;
79638;SDS011;69114;49.108;8.280;2024-01-30T02:36:46;23.92;;;15.52;;
79638;SDS011;69114;49.108;8.280;2024-01-30T02:39:11;25.48;;;13.77;;
79638;SDS011;69114;49.108;8.280;2024-01-30T02:41:36;20.92;;;14.25;;
79638;SDS011;69114;49.108;8.280;2024-01-30T02:44:02;18.45;;;12.25;;
79638;SDS011;69114;49.108;8.280;2024-01-30T02:46:28;21.83;;;13.85;;
79638;SDS011;69114;49.108;8.280;2024-01-30T02:48:54;23.60;;;14.35;;
79638;SDS011;69114;49.108;8.280;2024-01-30T02:51:19;17.48;;;12.95;;
79638;SDS011;69114;49.108;8.280;2024-01-30T02:53:44;18.30;;;12.70;;
79638;SDS011;69114;49.108;8.280;2024-01-30T02:56:10;20.98;;;13.15;;
79638;SDS011;69114;49.108;8.280;2024-01-30T02:58:36;20.23;;;12.50;;
79638;SDS011;69114;49.108;8.280;2024-01-30T03:01:02;17.85;;;12.27;;
79638;SDS011;69114;49.108;8.280;2024-01-30T03:03:27;19.23;;;12.55;;
79638;SDS011;69114;49.108;8.280;2024-01-30T03:05:53;21.58;;;13.95;;
79638;SDS011;69114;49.108;8.280;2024-01-30T03:08:19;21.27;;;13.93;;
79638;SDS011;69114;49.108;8.280;2024-01-30T03:10:44;25.98;;;14.23;;
79638;SDS011;69114;49.108;8.280;2024-01-30T03:13:10;20.13;;;13.57;;
79638;SDS011;69114;49.108;8.280;2024-01-30T03:15:35;24.08;;;14.57;;
79638;SDS011;69114;49.108;8.280;2024-01-30T03:18:01;22.02;;;13.65;;
79638;SDS011;69114;49.108;8.280;2024-01-30T03:20:28;21.48;;;13.88;;
79638;SDS011;69114;49.108;8.280;2024-01-30T03:22:54;21.15;;;14.75;;
79638;SDS011;69114;49.108;8.280;2024-01-30T03:25:20;23.50;;;14.50;;
79638;SDS011;69114;49.108;8.280;2024-01-30T03:27:46;19.75;;;13.43;;
79638;SDS011;69114;49.108;8.280;2024-01-30T03:30:11;22.05;;;14.90;;
79638;SDS011;69114;49.108;8.280;2024-01-30T03:32:37;25.02;;;15.52;;
79638;SDS011;69114;49.108;8.280;2024-01-30T03:35:02;21.67;;;14.18;;
79638;SDS011;69114;49.108;8.280;2024-01-30T03:37:28;25.45;;;16.10;;
79638;SDS011;69114;49.108;8.280;2024-01-30T03:39:53;25.25;;;15.57;;
79638;SDS011;69114;49.108;8.280;2024-01-30T03:42:19;28.02;;;17.65;;
79638;SDS011;69114;49.108;8.280;2024-01-30T03:44:44;28.02;;;18.40;;
79638;SDS011;69114;49.108;8.280;2024-01-30T03:47:09;30.88;;;19.90;;
79638;SDS011;69114;49.108;8.280;2024-01-30T03:49:35;40.00;;;21.30;;
79638;SDS011;69114;49.108;8.280;2024-01-30T03:52:00;32.97;;;20.73;;
79638;SDS011;69114;49.108;8.280;2024-01-30T03:54:25;37.80;;;22.45;;
79638;SDS011;69114;49.108;8.280;2024-01-30T03:56:51;34.70;;;22.02;;
79638;SDS011;69114;49.108;8.280;2024-01-30T03:59:16;37.50;;;21.00;;
79638;SDS011;69114;49.108;8.280;2024-01-30T04:01:47;38.47;;;22.52;;
79638;SDS011;69114;49.108;8.280;2024-01-30T04:04:12;35.00;;;20.67;;
79638;SDS011;69114;49.108;8.280;2024-01-30T04:06:37;35.78;;;22.50;;
79638;SDS011;69114;49.108;8.280;2024-01-30T04:09:03;36.13;;;21.15;;
79638;SDS011;69114;49.108;8.280;2024-01-30T04:11:28;31.23;;;20.95;;
79638;SDS011;69114;49.108;8.280;2024-01-30T04:13:54;30.80;;;18.23;;
79638;SDS011;69114;49.108;8.280;2024-01-30T04:16:20;33.38;;;20.50;;
79638;SDS011;69114;49.108;8.280;2024-01-30T04:18:47;29.42;;;20.08;;
79638;SDS011;69114;49.108;8.280;2024-01-30T04:21:12;32.40;;;18.35;;
79638;SDS011;69114;49.108;8.280;2024-01-30T04:23:37;27.40;;;17.93;;
79638;SDS011;69114;49.108;8.280;2024-01-30T04:26:02;27.77;;;17.30;;
79638;SDS011;69114;49.108;8.280;2024-01-30T04:28:28;28.60;;;16.33;;
79638;SDS011;69114;49.108;8.280;2024-01-30T04:30:54;23.80;;;15.40;;
79638;SDS011;69114;49.108;8.280;2024-01-30T04:33:20;22.77;;;14.00;;
79638;SDS011;69114;49.108;8.280;2024-01-30T04:35:45;24.73;;;15.80;;
79638;SDS011;69114;49.108;8.280;2024-01-30T04:38:10;24.03;;;14.33;;
79638;SDS011;69114;49.108;8.280;2024-01-30T04:40:36;19.85;;;12.13;;
79638;SDS011;69114;49.108;8.280;2024-01-30T04:43:01;17.83;;;12.20;;
79638;SDS011;69114;49.108;8.280;2024-01-30T04:45:27;20.40;;;13.05;;
79638;SDS011;69114;49.108;8.280;2024-01-30T04:47:52;18.90;;;12.52;;
79638;SDS011;69114;49.108;8.280;2024-01-30T04:50:17;18.20;;;12.40;;
79638;SDS011;69114;49.108;8.280;2024-01-30T04:52:43;25.83;;;13.55;;
79638;SDS011;69114;49.108;8.280;2024-01-30T04:55:08;21.85;;;14.18;;
79638;SDS011;69114;49.108;8.280;2024-01-30T04:57:34;21.40;;;12.80;;
79638;SDS011;69114;49.108;8.280;2024-01-30T04:59:59;22.10;;;13.52;;
79638;SDS011;69114;49.108;8.280;2024-01-30T05:02:24;17.48;;;13.10;;
79638;SDS011;69114;49.108;8.280;2024-01-30T05:04:50;21.23;;;12.07;;
79638;SDS011;69114;49.108;8.280;2024-01-30T05:07:15;22.35;;;12.70;;
79638;SDS011;69114;49.108;8.280;2024-01-30T05:09:40;17.67;;;11.95;;
79638;SDS011;69114;49.108;8.280;2024-01-30T05:12:06;16.92;;;12.15;;
79638;SDS011;69114;49.108;8.280;2024-01-30T05:14:32;16.65;;;12.70;;
79638;SDS011;69114;49.108;8.280;2024-01-30T05:16:57;22.17;;;13.02;;
79638;SDS011;69114;49.108;8.280;2024-01-30T05:19:23;20.90;;;12.13;;
79638;SDS011;69114;49.108;8.280;2024-01-30T05:21:48;19.70;;;12.68;;
79638;SDS011;69114;49.108;8.280;2024-01-30T05:24:14;18.15;;;12.23;;
79638;SDS011;69114;49.108;8.280;2024-01-30T05:26:39;22.05;;;13.18;;
79638;SDS011;69114;49.108;8.280;2024-01-30T05:29:05;23.80;;;14.13;;
79638;SDS011;69114;49.108;8.280;2024-01-30T05:31:31;19.42;;;13.00;;
79638;SDS011;69114;49.108;8.280;2024-01-30T05:33:56;20.33;;;11.70;;
79638;SDS011;69114;49.108;8.280;2024-01-30T05:36:22;14.98;;;10.85;;
79638;SDS011;69114;49.108;8.280;2024-01-30T05:38:47;19.65;;;13.20;;
79638;SDS011;69114;49.108;8.280;2024-01-30T05:41:12;21.80;;;13.87;;
79638;SDS011;69114;49.108;8.280;2024-01-30T05:43:38;17.88;;;12.25;;
79638;SDS011;69114;49.108;8.280;2024-01-30T05:46:03;16.75;;;11.23;;
79638;SDS011;69114;49.108;8.280;2024-01-30T05:48:29;19.77;;;11.80;;
79638;SDS011;69114;49.108;8.280;2024-01-30T05:50:54;20.35;;;12.52;;
79638;SDS011;69114;49.108;8.280;2024-01-30T05:53:19;22.92;;;14.88;;
79638;SDS011;69114;49.108;8.280;2024-01-30T05:55:45;22.95;;;14.35;;
79638;SDS011;69114;49.108;8.280;2024-01-30T05:58:10;19.40;;;12.95;;
79638;SDS011;69114;49.108;8.280;2024-01-30T06:00:36;20.90;;;12.38;;
79638;SDS011;69114;49.108;8.280;2024-01-30T06:03:01;17.15;;;12.48;;
79638;SDS011;69114;49.108;8.280;2024-01-30T06:05:27;18.83;;;12.70;;
79638;SDS011;69114;49.108;8.280;2024-01-30T06:07:52;24.25;;;15.40;;
79638;SDS011;69114;49.108;8.280;2024-01-30T06:10:18;21.05;;;12.98;;
79638;SDS011;69114;49.108;8.280;2024-01-30T06:12:44;24.85;;;13.95;;
79638;SDS011;69114;49.108;8.280;2024-01-30T06:15:09;22.55;;;14.90;;
79638;SDS011;69114;49.108;8.280;2024-01-30T06:17:35;25.75;;;15.93;;
79638;SDS011;69114;49.108;8.280;2024-01-30T06:20:00;21.35;;;14.48;;
79638;SDS011;69114;49.108;8.280;2024-01-30T06:22:26;24.15;;;15.25;;
79638;SDS011;69114;49.108;8.280;2024-01-30T06:24:51;24.03;;;12.23;;
79638;SDS011;69114;49.108;8.280;2024-01-30T06:27:16;24.85;;;15.77;;
79638;SDS011;69114;49.108;8.280;2024-01-30T06:29:42;23.55;;;13.95;;
79638;SDS011;69114;49.108;8.280;2024-01-30T06:32:08;25.45;;;13.57;;
79638;SDS011;69114;49.108;8.280;2024-01-30T06:34:34;22.80;;;14.23;;
79638;SDS011;69114;49.108;8.280;2024-01-30T06:36:59;23.65;;;15.40;;
79638;SDS011;69114;49.108;8.280;2024-01-30T06:39:24;27.83;;;17.38;;
79638;SDS011;69114;49.108;8.280;2024-01-30T06:41:50;26.92;;;17.08;;
79638;SDS011;69114;49.108;8.280;2024-01-30T06:44:16;29.63;;;18.03;;
79638;SDS011;69114;49.108;8.280;2024-01-30T06:46:41;31.95;;;19.25;;
79638;SDS011;69114;49.108;8.280;2024-01-30T06:49:07;31.05;;;18.30;;
79638;SDS011;69114;49.108;8.280;2024-01-30T06:51:32;27.50;;;17.27;;
79638;SDS011;69114;49.108;8.280;2024-01-30T06:53:57;27.15;;;18.83;;
79638;SDS011;69114;49.108;8.280;2024-01-30T06:56:23;35.40;;;22.27;;
79638;SDS011;69114;49.108;8.280;2024-01-30T06:58:48;32.00;;;20.50;;
79638;SDS011;69114;49.108;8.280;2024-01-30T07:01:14;34.17;;;21.15;;
79638;SDS011;69114;49.108;8.280;2024-01-30T07:03:40;38.38;;;22.85;;
79638;SDS011;69114;49.108;8.280;2024-01-30T07:06:05;29.38;;;19.25;;
79638;SDS011;69114;49.108;8.280;2024-01-30T07:08:31;34.15;;;21.58;;
79638;SDS011;69114;49.108;8.280;2024-01-30T07:10:56;32.33;;;21.58;;
79638;SDS011;69114;49.108;8.280;2024-01-30T07:13:21;35.97;;;22.05;;
79638;SDS011;69114;49.108;8.280;2024-01-30T07:15:47;37.03;;;23.80;;
79638;SDS011;69114;49.108;8.280;2024-01-30T07:18:12;37.60;;;22.20;;
79638;SDS011;69114;49.108;8.280;2024-01-30T07:20:38;37.58;;;24.05;;
79638;SDS011;69114;49.108;8.280;2024-01-30T07:23:10;35.67;;;21.75;;
79638;SDS011;69114;49.108;8.280;2024-01-30T07:25:38;38.28;;;19.33;;
79638;SDS011;69114;49.108;8.280;2024-01-30T07:28:07;28.52;;;18.75;;
79638;SDS011;69114;49.108;8.280;2024-01-30T07:30:34;28.95;;;20.05;;
79638;SDS011;69114;49.108;8.280;2024-01-30T07:33:00;32.83;;;21.55;;
79638;SDS011;69114;49.108;8.280;2024-01-30T07:35:25;31.20;;;21.38;;
79638;SDS011;69114;49.108;8.280;2024-01-30T07:37:51;31.83;;;21.03;;
79638;SDS011;69114;49.108;8.280;2024-01-30T07:40:16;34.63;;;21.38;;
79638;SDS011;69114;49.108;8.280;2024-01-30T07:42:42;37.22;;;23.40;;
79638;SDS011;69114;49.108;8.280;2024-01-30T07:45:08;36.45;;;22.00;;
79638;SDS011;69114;49.108;8.280;2024-01-30T07:47:33;37.03;;;23.58;;
79638;SDS011;69114;49.108;8.280;2024-01-30T07:49:58;35.67;;;20.93;;
79638;SDS011;69114;49.108;8.280;2024-01-30T07:52:24;30.77;;;21.02;;
79638;SDS011;69114;49.108;8.280;2024-01-30T07:54:49;35.33;;;20.85;;
79638;SDS011;69114;49.108;8.280;2024-01-30T07:57:15;36.38;;;22.67;;
79638;SDS011;69114;49.108;8.280;2024-01-30T07:59:44;37.03;;;22.30;;
79638;SDS011;69114;49.108;8.280;2024-01-30T08:02:10;39.92;;;21.75;;
79638;SDS011;69114;49.108;8.280;2024-01-30T08:04:36;41.50;;;26.25;;
79638;SDS011;69114;49.108;8.280;2024-01-30T08:07:02;40.03;;;25.10;;
79638;SDS011;69114;49.108;8.280;2024-01-30T08:09:27;45.85;;;28.40;;
79638;SDS011;69114;49.108;8.280;2024-01-30T08:11:53;44.28;;;26.98;;
79638;SDS011;69114;49.108;8.280;2024-01-30T08:14:18;42.50;;;24.30;;
79638;SDS011;69114;49.108;8.280;2024-01-30T08:16:43;44.15;;;25.88;;
79638;SDS011;69114;49.108;8.280;2024-01-30T08:19:09;40.03;;;26.77;;
79638;SDS011;69114;49.108;8.280;2024-01-30T08:21:34;51.33;;;31.80;;
79638;SDS011;69114;49.108;8.280;2024-01-30T08:24:03;43.10;;;26.77;;
79638;SDS011;69114;49.108;8.280;2024-01-30T08:26:29;44.55;;;31.98;;
79638;SDS011;69114;49.108;8.280;2024-01-30T08:28:54;43.75;;;26.23;;
79638;SDS011;69114;49.108;8.280;2024-01-30T08:31:19;41.13;;;25.75;;
79638;SDS011;69114;49.108;8.280;2024-01-30T08:33:45;38.63;;;24.10;;
79638;SDS011;69114;49.108;8.280;2024-01-30T08:36:10;37.65;;;23.67;;
79638;SDS011;69114;49.108;8.280;2024-01-30T08:38:35;39.63;;;26.23;;
79638;SDS011;69114;49.108;8.280;2024-01-30T08:41:01;37.95;;;24.45;;
79638;SDS011;69114;49.108;8.280;2024-01-30T08:43:26;34.57;;;23.30;;
79638;SDS011;69114;49.108;8.280;2024-01-30T08:45:51;31.20;;;22.45;;
79638;SDS011;69114;49.108;8.280;2024-01-30T08:48:17;37.20;;;22.47;;
79638;SDS011;69114;49.108;8.280;2024-01-30T08:50:42;32.22;;;23.45;;
79638;SDS011;69114;49.108;8.280;2024-01-30T08:53:08;28.55;;;20.05;;
79638;SDS011;69114;49.108;8.280;2024-01-30T08:55:33;32.33;;;20.85;;
79638;SDS011;69114;49.108;8.280;2024-01-30T08:57:58;30.27;;;20.83;;
79638;SDS011;69114;49.108;8.280;2024-01-30T09:00:24;30.75;;;20.90;;
79638;SDS011;69114;49.108;8.280;2024-01-30T09:02:59;33.25;;;21.52;;
79638;SDS011;69114;49.108;8.280;2024-01-30T09:05:24;31.33;;;21.47;;
79638;SDS011;69114;49.108;8.280;2024-01-30T09:07:50;29.40;;;20.38;;
79638;SDS011;69114;49.108;8.280;2024-01-30T09:10:15;31.67;;;19.90;;
79638;SDS011;69114;49.108;8.280;2024-01-30T09:12:40;29.85;;;19.55;;
79638;SDS011;69114;49.108;8.280;2024-01-30T09:15:06;30.70;;;20.67;;
79638;SDS011;69114;49.108;8.280;2024-01-30T09:17:31;28.08;;;18.75;;
79638;SDS011;69114;49.108;8.280;2024-01-30T09:19:58;26.40;;;18.45;;
79638;SDS011;69114;49.108;8.280;2024-01-30T09:22:23;28.60;;;18.38;;
79638;SDS011;69114;49.108;8.280;2024-01-30T09:24:48;24.77;;;19.10;;
79638;SDS011;69114;49.108;8.280;2024-01-30T09:27:14;25.55;;;19.17;;
79638;SDS011;69114;49.108;8.280;2024-01-30T09:29:39;25.40;;;19.05;;
79638;SDS011;69114;49.108;8.280;2024-01-30T09:32:05;25.50;;;17.53;;
79638;SDS011;69114;49.108;8.280;2024-01-30T09:34:31;30.35;;;19.42;;
79638;SDS011;69114;49.108;8.280;2024-01-30T09:36:57;28.98;;;18.35;;
79638;SDS011;69114;49.108;8.280;2024-01-30T09:39:23;25.15;;;16.90;;
79638;SDS011;69114;49.108;8.280;2024-01-30T09:41:49;27.40;;;19.03;;
79638;SDS011;69114;49.108;8.280;2024-01-30T09:44:23;28.67;;;17.92;;
79638;SDS011;69114;49.108;8.280;2024-01-30T09:46:50;29.65;;;16.77;;
79638;SDS011;69114;49.108;8.280;2024-01-30T09:49:16;23.85;;;16.95;;
79638;SDS011;69114;49.108;8.280;2024-01-30T09:51:43;29.30;;;18.85;;
79638;SDS011;69114;49.108;8.280;2024-01-30T09:54:10;30.15;;;19.00;;
79638;SDS011;69114;49.108;8.280;2024-01-30T09:56:40;27.35;;;18.77;;
79638;SDS011;69114;49.108;8.280;2024-01-30T09:59:05;31.58;;;20.25;;
79638;SDS011;69114;49.108;8.280;2024-01-30T10:01:31;29.50;;;18.63;;
79638;SDS011;69114;49.108;8.280;2024-01-30T10:03:56;28.02;;;17.08;;
79638;SDS011;69114;49.108;8.280;2024-01-30T10:06:22;25.85;;;16.83;;
79638;SDS011;69114;49.108;8.280;2024-01-30T10:08:50;20.38;;;14.57;;
79638;SDS011;69114;49.108;8.280;2024-01-30T10:11:15;24.42;;;16.15;;
79638;SDS011;69114;49.108;8.280;2024-01-30T10:13:40;24.88;;;15.98;;
79638;SDS011;69114;49.108;8.280;2024-01-30T10:16:06;24.17;;;16.23;;
79638;SDS011;69114;49.108;8.280;2024-01-30T10:18:31;23.60;;;16.02;;
79638;SDS011;69114;49.108;8.280;2024-01-30T10:20:57;24.38;;;15.88;;
79638;SDS011;69114;49.108;8.280;2024-01-30T10:23:23;22.85;;;15.90;;
79638;SDS011;69114;49.108;8.280;2024-01-30T10:25:50;23.27;;;15.88;;
79638;SDS011;69114;49.108;8.280;2024-01-30T10:28:16;23.00;;;16.02;;
79638;SDS011;69114;49.108;8.280;2024-01-30T10:30:41;23.70;;;15.90;;
79638;SDS011;69114;49.108;8.280;2024-01-30T10:33:06;24.38;;;16.85;;
79638;SDS011;69114;49.108;8.280;2024-01-30T10:35:32;20.50;;;15.95;;
79638;SDS011;69114;49.108;8.280;2024-01-30T10:37:58;24.08;;;16.42;;
79638;SDS011;69114;49.108;8.280;2024-01-30T10:40:26;22.85;;;15.02;;
79638;SDS011;69114;49.108;8.280;2024-01-30T10:42:53;21.38;;;14.38;;
79638;SDS011;69114;49.108;8.280;2024-01-30T10:45:20;20.95;;;16.13;;
79638;SDS011;69114;49.108;8.280;2024-01-30T10:47:48;23.33;;;15.80;;
79638;SDS011;69114;49.108;8.280;2024-01-30T10:50:15;22.10;;;14.80;;
79638;SDS011;69114;49.108;8.280;2024-01-30T10:52:41;25.83;;;16.67;;
79638;SDS011;69114;49.108;8.280;2024-01-30T10:55:07;24.88;;;16.08;;
79638;SDS011;69114;49.108;8.280;2024-01-30T10:57:36;19.15;;;13.07;;
79638;SDS011;69114;49.108;8.280;2024-01-30T11:00:03;20.05;;;14.45;;
79638;SDS011;69114;49.108;8.280;2024-01-30T11:02:35;18.88;;;14.05;;
79638;SDS011;69114;49.108;8.280;2024-01-30T11:05:04;19.90;;;13.27;;
79638;SDS011;69114;49.108;8.280;2024-01-30T11:07:30;19.55;;;13.68;;
79638;SDS011;69114;49.108;8.280;2024-01-30T11:15:07;16.63;;;10.80;;
79638;SDS011;69114;49.108;8.280;2024-01-30T11:20:15;14.45;;;11.30;;
79638;SDS011;69114;49.108;8.280;2024-01-30T11:22:42;15.60;;;10.80;;
79638;SDS011;69114;49.108;8.280;2024-01-30T11:25:13;16.20;;;10.35;;
79638;SDS011;69114;49.108;8.280;2024-01-30T11:27:39;12.52;;;9.30;;
79638;SDS011;69114;49.108;8.280;2024-01-30T11:30:06;14.27;;;9.35;;
79638;SDS011;69114;49.108;8.280;2024-01-30T11:32:33;12.00;;;8.30;;
79638;SDS011;69114;49.108;8.280;2024-01-30T11:34:58;10.45;;;8.10;;
79638;SDS011;69114;49.108;8.280;2024-01-30T11:37:24;9.32;;;6.95;;
79638;SDS011;69114;49.108;8.280;2024-01-30T11:39:51;11.35;;;7.22;;
79638;SDS011;69114;49.108;8.280;2024-01-30T11:42:18;8.75;;;6.68;;
79638;SDS011;69114;49.108;8.280;2024-01-30T11:44:47;8.55;;;6.45;;
79638;SDS011;69114;49.108;8.280;2024-01-30T11:47:13;9.05;;;7.15;;
79638;SDS011;69114;49.108;8.280;2024-01-30T11:49:39;11.93;;;7.57;;
79638;SDS011;69114;49.108;8.280;2024-01-30T11:52:05;12.77;;;8.02;;
79638;SDS011;69114;49.108;8.280;2024-01-30T11:54:30;9.10;;;7.15;;
79638;SDS011;69114;49.108;8.280;2024-01-30T11:56:55;12.50;;;7.93;;
79638;SDS011;69114;49.108;8.280;2024-01-30T11:59:21;6.50;;;4.93;;
79638;SDS011;69114;49.108;8.280;2024-01-30T12:01:46;10.90;;;6.37;;
79638;SDS011;69114;49.108;8.280;2024-01-30T12:04:12;8.07;;;5.72;;
79638;SDS011;69114;49.108;8.280;2024-01-30T12:06:38;7.72;;;5.00;;
79638;SDS011;69114;49.108;8.280;2024-01-30T12:09:04;8.38;;;5.38;;
79638;SDS011;69114;49.108;8.280;2024-01-30T12:11:30;6.13;;;4.88;;
79638;SDS011;69114;49.108;8.280;2024-01-30T12:13:55;7.10;;;4.90;;
79638;SDS011;69114;49.108;8.280;2024-01-30T12:16:21;7.32;;;5.80;;
79638;SDS011;69114;49.108;8.280;2024-01-30T12:18:47;7.95;;;5.93;;
79638;SDS011;69114;49.108;8.280;2024-01-30T12:21:15;7.65;;;6.13;;
79638;SDS011;69114;49.108;8.280;2024-01-30T12:23:41;7.32;;;5.50;;
79638;SDS011;69114;49.108;8.280;2024-01-30T12:26:07;9.15;;;5.70;;
79638;SDS011;69114;49.108;8.280;2024-01-30T12:28:33;7.45;;;5.22;;
79638;SDS011;69114;49.108;8.280;2024-01-30T12:31:04;9.50;;;5.53;;
79638;SDS011;69114;49.108;8.280;2024-01-30T12:33:30;7.40;;;6.15;;
79638;SDS011;69114;49.108;8.280;2024-01-30T12:35:56;7.70;;;5.55;;
79638;SDS011;69114;49.108;8.280;2024-01-30T12:38:22;6.35;;;5.00;;
79638;SDS011;69114;49.108;8.280;2024-01-30T12:40:49;9.07;;;5.40;;
79638;SDS011;69114;49.108;8.280;2024-01-30T12:43:24;7.45;;;5.70;;
79638;SDS011;69114;49.108;8.280;2024-01-30T12:45:50;5.65;;;4.93;;
79638;SDS011;69114;49.108;8.280;2024-01-30T12:48:17;7.00;;;4.82;;
79638;SDS011;69114;49.108;8.280;2024-01-30T12:50:42;8.23;;;6.20;;
79638;SDS011;69114;49.108;8.280;2024-01-30T12:53:07;7.30;;;5.03;;
79638;SDS011;69114;49.108;8.280;2024-01-30T12:55:34;7.85;;;4.85;;
79638;SDS011;69114;49.108;8.280;2024-01-30T12:58:09;8.27;;;4.90;;
79638;SDS011;69114;49.108;8.280;2024-01-30T13:00:34;6.55;;;4.72;;
79638;SDS011;69114;49.108;8.280;2024-01-30T13:02:59;8.65;;;5.13;;
79638;SDS011;69114;49.108;8.280;2024-01-30T13:05:25;6.95;;;4.88;;
79638;SDS011;69114;49.108;8.280;2024-01-30T13:07:50;6.78;;;4.60;;
79638;SDS011;69114;49.108;8.280;2024-01-30T13:10:16;7.45;;;5.25;;
79638;SDS011;69114;49.108;8.280;2024-01-30T13:12:42;7.68;;;5.28;;
79638;SDS011;69114;49.108;8.280;2024-01-30T13:15:07;8.00;;;4.82;;
79638;SDS011;69114;49.108;8.280;2024-01-30T13:17:33;8.15;;;5.38;;
79638;SDS011;69114;49.108;8.280;2024-01-30T13:19:59;7.22;;;4.82;;
79638;SDS011;69114;49.108;8.280;2024-01-30T13:22:24;7.20;;;5.15;;
79638;SDS011;69114;49.108;8.280;2024-01-30T13:24:50;5.97;;;5.13;;
79638;SDS011;69114;49.108;8.280;2024-01-30T13:27:15;6.18;;;5.45;;
79638;SDS011;69114;49.108;8.280;2024-01-30T13:29:41;7.32;;;4.55;;
79638;SDS011;69114;49.108;8.280;2024-01-30T13:32:06;8.20;;;5.20;;
79638;SDS011;69114;49.108;8.280;2024-01-30T13:34:31;12.63;;;8.25;;
79638;SDS011;69114;49.108;8.280;2024-01-30T13:36:57;9.80;;;7.15;;
79638;SDS011;69114;49.108;8.280;2024-01-30T13:39:23;10.65;;;7.50;;
79638;SDS011;69114;49.108;8.280;2024-01-30T13:41:48;8.60;;;6.50;;
79638;SDS011;69114;49.108;8.280;2024-01-30T13:44:14;9.45;;;4.90;;
79638;SDS011;69114;49.108;8.280;2024-01-30T13:46:41;7.10;;;5.18;;
79638;SDS011;69114;49.108;8.280;2024-01-30T13:49:07;7.40;;;5.47;;
79638;SDS011;69114;49.108;8.280;2024-01-30T13:51:32;7.40;;;5.60;;
79638;SDS011;69114;49.108;8.280;2024-01-30T13:53:57;7.65;;;5.68;;
79638;SDS011;69114;49.108;8.280;2024-01-30T13:56:23;7.40;;;5.72;;
79638;SDS011;69114;49.108;8.280;2024-01-30T13:58:48;7.70;;;5.57;;
79638;SDS011;69114;49.108;8.280;2024-01-30T14:01:15;7.93;;;5.75;;
79638;SDS011;69114;49.108;8.280;2024-01-30T14:03:40;11.75;;;6.85;;
79638;SDS011;69114;49.108;8.280;2024-01-30T14:06:06;6.78;;;6.07;;
79638;SDS011;69114;49.108;8.280;2024-01-30T14:08:31;9.27;;;6.85;;
79638;SDS011;69114;49.108;8.280;2024-01-30T14:10:57;11.13;;;6.55;;
79638;SDS011;69114;49.108;8.280;2024-01-30T14:13:23;9.20;;;5.95;;
79638;SDS011;69114;49.108;8.280;2024-01-30T14:15:50;8.48;;;5.97;;
79638;SDS011;69114;49.108;8.280;2024-01-30T14:18:15;8.02;;;6.18;;
79638;SDS011;69114;49.108;8.280;2024-01-30T14:20:41;7.28;;;5.85;;
79638;SDS011;69114;49.108;8.280;2024-01-30T14:23:06;8.93;;;6.20;;
79638;SDS011;69114;49.108;8.280;2024-01-30T14:25:32;8.93;;;5.75;;